createdAt,value
2018-12-19T00:00:24.499Z,88.39
2018-12-19T00:02:53.920Z,87.80
2018-12-19T00:05:23.183Z,86.73
2018-12-19T00:07:52.663Z,85.78
2018-12-19T00:10:21.989Z,84.11
2018-12-19T00:12:51.333Z,82.41
2018-12-19T00:15:20.739Z,82.53
2018-12-19T00:17:50.136Z,84.39
2018-12-19T00:20:19.746Z,85.22
2018-12-19T00:22:49.052Z,84.23
2018-12-19T00:25:18.421Z,82.85
2018-12-19T00:27:47.794Z,81.35
2018-12-19T00:30:16.992Z,80.27
2018-12-19T00:32:46.232Z,82.07
2018-12-19T00:35:15.728Z,81.47
2018-12-19T00:37:44.944Z,83.06
2018-12-19T00:40:14.281Z,82.52
2018-12-19T00:42:43.564Z,82.01
2018-12-19T00:45:12.810Z,80.96
2018-12-19T00:47:42.318Z,81.72
2018-12-19T00:50:11.510Z,80.54
2018-12-19T00:52:40.641Z,80.04
2018-12-19T00:55:10.132Z,80.29
2018-12-19T00:57:39.569Z,79.98
2018-12-19T01:00:09.458Z,79.28
2018-12-19T01:02:38.667Z,78.50
2018-12-19T01:05:07.948Z,76.52
2018-12-19T01:07:37.362Z,76.78
2018-12-19T01:10:06.768Z,76.57
2018-12-19T01:12:36.040Z,77.61
2018-12-19T01:15:05.724Z,77.37
2018-12-19T01:17:35.153Z,78.18
2018-12-19T01:20:04.701Z,78.36
2018-12-19T01:22:34.061Z,78.50
2018-12-19T01:25:03.307Z,78.61
2018-12-19T01:27:32.886Z,78.24
2018-12-19T01:30:02.542Z,77.93
2018-12-19T01:32:32.104Z,76.79
2018-12-19T01:35:01.594Z,76.80
2018-12-19T01:37:30.780Z,75.14
2018-12-19T01:40:00.219Z,74.06
2018-12-19T01:42:29.495Z,74.02
2018-12-19T01:44:58.936Z,75.23
2018-12-19T01:47:28.196Z,75.17
2018-12-19T01:49:57.544Z,77.08
2018-12-19T01:52:26.961Z,77.88
2018-12-19T01:54:56.126Z,78.82
2018-12-19T01:57:25.415Z,78.00
2018-12-19T01:59:54.885Z,77.06
2018-12-19T02:02:24.329Z,76.54
2018-12-19T02:04:53.628Z,76.45
2018-12-19T02:07:23.480Z,75.22
2018-12-19T02:09:53.666Z,75.01
2018-12-19T02:12:23.043Z,75.23
2018-12-19T02:14:52.291Z,74.46
2018-12-19T02:17:21.542Z,74.19
2018-12-19T02:19:50.886Z,73.84
2018-12-19T02:22:20.419Z,73.43
2018-12-19T02:24:49.507Z,73.67
2018-12-19T02:27:18.699Z,73.46
2018-12-19T02:29:47.928Z,73.66
2018-12-19T02:32:17.048Z,73.91
2018-12-19T02:34:46.336Z,73.62
2018-12-19T02:37:15.681Z,73.91
2018-12-19T02:39:44.830Z,74.00
2018-12-19T02:42:14.074Z,73.27
2018-12-19T02:44:43.364Z,73.00
2018-12-19T02:47:12.807Z,74.44
2018-12-19T02:49:42.187Z,73.38
2018-12-19T02:52:11.615Z,72.82
2018-12-19T02:54:40.968Z,73.04
2018-12-19T02:57:10.484Z,72.99
2018-12-19T02:59:40.070Z,73.64
2018-12-19T03:02:09.460Z,73.38
2018-12-19T03:04:38.634Z,74.77
2018-12-19T03:07:08.381Z,75.89
2018-12-19T03:09:42.878Z,76.72
2018-12-19T03:12:09.133Z,76.18
2018-12-19T03:14:38.363Z,78.14
2018-12-19T03:17:07.617Z,77.88
2018-12-19T03:19:37.057Z,76.74
2018-12-19T03:22:06.355Z,78.10
2018-12-19T03:24:35.824Z,79.48
2018-12-19T03:27:05.196Z,80.63
2018-12-19T03:29:34.421Z,80.35
2018-12-19T03:32:03.560Z,80.55
2018-12-19T03:34:32.722Z,79.97
2018-12-19T03:37:02.058Z,80.21
2018-12-19T03:39:31.426Z,80.57
2018-12-19T03:42:00.752Z,81.19
2018-12-19T03:44:30.025Z,81.64
2018-12-19T03:46:59.516Z,81.35
2018-12-19T03:49:29.139Z,79.89
2018-12-19T03:51:58.632Z,80.00
2018-12-19T03:54:28.167Z,81.68
2018-12-19T03:56:58.202Z,81.99
2018-12-19T03:59:27.381Z,81.96
2018-12-19T04:01:56.633Z,82.25
2018-12-19T04:04:26.098Z,82.36
2018-12-19T04:06:55.377Z,82.65
2018-12-19T04:09:24.502Z,82.48
2018-12-19T04:11:53.753Z,82.64
2018-12-19T04:14:22.905Z,82.05
2018-12-19T04:16:52.404Z,81.61
2018-12-19T04:19:21.949Z,82.86
2018-12-19T04:21:51.293Z,82.17
2018-12-19T04:24:20.600Z,82.24
2018-12-19T04:26:49.825Z,82.80
2018-12-19T04:29:19.315Z,83.30
2018-12-19T04:31:48.592Z,82.80
2018-12-19T04:34:17.713Z,81.81
2018-12-19T04:36:46.911Z,81.04
2018-12-19T04:39:16.228Z,81.44
2018-12-19T04:41:45.448Z,81.24
2018-12-19T04:44:14.860Z,80.31
2018-12-19T04:46:44.141Z,80.42
2018-12-19T04:49:13.391Z,80.01
2018-12-19T04:51:42.600Z,80.76
2018-12-19T04:54:12.033Z,83.12
2018-12-19T04:56:41.253Z,83.49
2018-12-19T04:59:10.381Z,84.16
2018-12-19T05:01:39.663Z,84.05
2018-12-19T05:04:08.959Z,83.86
2018-12-19T05:06:38.106Z,83.92
2018-12-19T05:09:08.871Z,83.89
2018-12-19T05:11:38.462Z,83.91
2018-12-19T05:14:07.669Z,84.14
2018-12-19T05:16:36.997Z,84.01
2018-12-19T05:19:06.497Z,83.34
2018-12-19T05:21:35.795Z,83.46
2018-12-19T05:24:05.148Z,84.11
2018-12-19T05:26:34.534Z,84.24
2018-12-19T05:29:03.801Z,83.79
2018-12-19T05:31:32.927Z,84.62
2018-12-19T05:34:02.014Z,83.61
2018-12-19T05:36:31.327Z,84.29
2018-12-19T05:39:00.557Z,83.67
2018-12-19T05:41:29.775Z,84.61
2018-12-19T05:43:58.932Z,85.86
2018-12-19T05:46:28.143Z,86.65
2018-12-19T05:48:57.650Z,86.12
2018-12-19T05:51:27.008Z,86.59
2018-12-19T05:53:56.297Z,89.08
2018-12-19T05:56:25.620Z,89.96
2018-12-19T05:58:55.045Z,89.77
2018-12-19T06:01:24.462Z,89.62
2018-12-19T06:03:53.712Z,90.20
2018-12-19T06:06:22.852Z,90.26
2018-12-19T06:08:52.231Z,88.89
2018-12-19T06:11:21.335Z,88.89
2018-12-19T06:13:50.647Z,88.80
2018-12-19T06:16:20.045Z,88.36
2018-12-19T06:18:49.320Z,87.29
2018-12-19T06:21:18.556Z,85.26
2018-12-19T06:23:47.806Z,85.51
2018-12-19T06:26:17.079Z,86.47
2018-12-19T06:28:46.234Z,87.73
2018-12-19T06:31:15.435Z,88.92
2018-12-19T06:33:44.871Z,89.76
2018-12-19T06:36:14.635Z,89.85
2018-12-19T06:38:43.926Z,90.45
2018-12-19T06:41:13.251Z,91.28
2018-12-19T06:43:42.308Z,91.79
2018-12-19T06:46:11.580Z,90.94
2018-12-19T06:48:40.796Z,90.93
2018-12-19T06:51:10.241Z,91.69
2018-12-19T06:53:39.533Z,91.35
2018-12-19T06:56:09.091Z,92.24
2018-12-19T06:58:38.546Z,92.32
2018-12-19T07:01:07.859Z,91.07
2018-12-19T07:03:37.056Z,90.77
2018-12-19T07:06:06.470Z,90.85
2018-12-19T07:08:35.732Z,90.88
2018-12-19T07:11:04.968Z,90.25
2018-12-19T07:13:34.207Z,88.70
2018-12-19T07:16:03.539Z,87.74
2018-12-19T07:18:32.766Z,87.40
2018-12-19T07:21:02.537Z,87.84
2018-12-19T07:23:31.892Z,88.42
2018-12-19T07:26:01.331Z,88.80
2018-12-19T07:28:30.772Z,89.99
2018-12-19T07:31:00.108Z,89.07
2018-12-19T07:33:29.274Z,88.52
2018-12-19T07:35:58.712Z,88.51
2018-12-19T07:38:27.992Z,87.81
2018-12-19T07:40:57.395Z,87.79
2018-12-19T07:43:26.731Z,88.69
2018-12-19T07:45:56.081Z,90.40
2018-12-19T07:48:25.663Z,91.32
2018-12-19T07:50:54.932Z,91.33
2018-12-19T07:53:24.179Z,90.24
2018-12-19T07:55:53.742Z,89.51
2018-12-19T07:58:23.164Z,89.61
2018-12-19T08:00:52.436Z,88.28
2018-12-19T08:03:21.775Z,88.58
2018-12-19T08:05:50.993Z,88.96
2018-12-19T08:08:20.219Z,89.77
2018-12-19T08:10:52.335Z,89.26
2018-12-19T08:13:20.860Z,88.72
2018-12-19T08:15:50.208Z,89.11
2018-12-19T08:18:19.415Z,89.36
2018-12-19T08:20:48.546Z,89.34
2018-12-19T08:23:17.856Z,89.61
2018-12-19T08:25:47.361Z,89.66
2018-12-19T08:28:16.711Z,88.68
2018-12-19T08:30:48.612Z,88.58
2018-12-19T08:33:18.171Z,89.15
2018-12-19T08:35:47.892Z,89.69
2018-12-19T08:38:17.227Z,88.62
2018-12-19T08:40:46.671Z,87.88
2018-12-19T08:43:15.924Z,89.15
2018-12-19T08:45:45.595Z,90.00
2018-12-19T08:48:14.872Z,89.16
2018-12-19T08:50:44.053Z,89.86
2018-12-19T08:53:13.455Z,91.52
2018-12-19T08:55:42.889Z,91.97
2018-12-19T08:58:12.366Z,91.73
2018-12-19T09:00:41.897Z,90.91
2018-12-19T09:03:11.372Z,91.24
2018-12-19T09:05:41.594Z,92.21
2018-12-19T09:08:11.072Z,93.18
2018-12-19T09:10:40.569Z,93.68
2018-12-19T09:13:09.795Z,93.34
2018-12-19T09:15:43.993Z,92.90
2018-12-19T09:18:14.323Z,92.88
2018-12-19T09:20:43.739Z,91.04
2018-12-19T09:23:12.945Z,90.69
2018-12-19T09:25:42.164Z,91.71
2018-12-19T09:28:11.450Z,90.94
2018-12-19T09:30:41.005Z,91.01
2018-12-19T09:33:10.395Z,90.07
2018-12-19T09:35:39.733Z,90.50
2018-12-19T09:38:08.873Z,90.67
2018-12-19T09:40:38.208Z,89.80
2018-12-19T09:43:08.032Z,89.46
2018-12-19T09:45:38.226Z,88.11
2018-12-19T09:48:07.647Z,87.45
2018-12-19T09:50:37.120Z,86.47
2018-12-19T09:53:06.152Z,84.37
2018-12-19T09:55:35.456Z,83.70
2018-12-19T09:58:04.682Z,81.91
2018-12-19T10:00:33.963Z,82.48
2018-12-19T10:03:03.197Z,82.96
2018-12-19T10:05:32.636Z,86.34
2018-12-19T10:08:01.911Z,88.10
2018-12-19T10:10:31.126Z,87.78
2018-12-19T10:13:00.403Z,87.93
2018-12-19T10:15:29.796Z,88.53
2018-12-19T10:17:59.115Z,87.24
2018-12-19T10:20:28.601Z,85.58
2018-12-19T10:22:57.892Z,83.39
2018-12-19T10:25:27.528Z,82.01
2018-12-19T10:27:56.677Z,82.68
2018-12-19T10:30:26.072Z,82.56
2018-12-19T10:32:56.904Z,81.93
2018-12-19T10:35:26.884Z,81.13
2018-12-19T10:37:56.307Z,81.16
2018-12-19T10:40:25.508Z,79.11
2018-12-19T10:42:54.970Z,77.80
2018-12-19T10:45:24.256Z,78.57
2018-12-19T10:47:53.419Z,79.68
2018-12-19T10:50:22.616Z,83.26
2018-12-19T10:52:51.975Z,84.11
2018-12-19T10:55:21.273Z,83.56
2018-12-19T10:57:50.703Z,82.90
2018-12-19T11:00:24.836Z,84.28
2018-12-19T11:02:54.126Z,83.92
2018-12-19T11:05:23.570Z,85.09
2018-12-19T11:07:53.083Z,84.71
2018-12-19T11:10:22.500Z,84.16
2018-12-19T11:12:51.980Z,84.73
2018-12-19T11:15:21.180Z,84.38
2018-12-19T11:17:50.646Z,84.32
2018-12-19T11:20:20.107Z,82.50
2018-12-19T11:22:50.219Z,83.96
2018-12-19T11:25:19.532Z,84.72
2018-12-19T11:27:49.028Z,84.16
2018-12-19T11:30:18.436Z,83.36
2018-12-19T11:32:47.795Z,84.33
2018-12-19T11:35:17.082Z,84.85
2018-12-19T11:37:46.357Z,85.72
2018-12-19T11:40:15.919Z,84.29
2018-12-19T11:42:45.420Z,84.82
2018-12-19T11:45:14.814Z,84.33
2018-12-19T11:47:44.190Z,84.85
2018-12-19T11:50:13.327Z,83.26
2018-12-19T11:52:42.832Z,81.67
2018-12-19T11:55:12.114Z,79.82
2018-12-19T11:57:41.340Z,79.95
2018-12-19T12:00:11.110Z,81.34
2018-12-19T12:02:40.456Z,83.14
2018-12-19T12:05:09.708Z,81.70
2018-12-19T12:07:39.332Z,82.36
2018-12-19T12:10:09.632Z,80.71
2018-12-19T12:12:39.113Z,81.83
2018-12-19T12:15:08.660Z,82.99
2018-12-19T12:17:38.292Z,83.87
2018-12-19T12:20:09.156Z,83.81
2018-12-19T12:22:38.647Z,82.46
2018-12-19T12:25:08.257Z,82.42
2018-12-19T12:27:37.686Z,83.75
2018-12-19T12:30:07.354Z,83.95
2018-12-19T12:32:36.922Z,83.42
2018-12-19T12:35:07.418Z,84.84
2018-12-19T12:37:36.998Z,85.87
2018-12-19T12:40:07.231Z,85.91
2018-12-19T12:42:36.941Z,86.21
2018-12-19T12:45:06.860Z,86.20
2018-12-19T12:47:36.711Z,83.74
2018-12-19T12:50:06.744Z,83.83
2018-12-19T12:52:36.317Z,84.17
2018-12-19T12:55:05.922Z,82.93
2018-12-19T12:57:35.432Z,83.04
2018-12-19T13:00:06.883Z,82.53
2018-12-19T13:02:36.531Z,83.10
2018-12-19T13:05:05.925Z,83.37
2018-12-19T13:07:35.481Z,82.41
2018-12-19T13:10:05.542Z,81.65
2018-12-19T13:12:34.898Z,79.21
2018-12-19T13:15:04.401Z,77.82
2018-12-19T13:17:33.900Z,79.32
2018-12-19T13:20:03.407Z,79.64
2018-12-19T13:22:32.884Z,81.35
2018-12-19T13:25:02.350Z,82.10
2018-12-19T13:27:31.791Z,81.84
2018-12-19T13:30:01.232Z,80.48
2018-12-19T13:32:30.667Z,80.85
2018-12-19T13:35:00.469Z,81.57
2018-12-19T13:37:30.149Z,82.79
2018-12-19T13:39:59.639Z,82.74
2018-12-19T13:42:29.032Z,83.40
2018-12-19T13:44:58.382Z,84.37
2018-12-19T13:47:27.949Z,83.02
2018-12-19T13:49:57.891Z,81.29
2018-12-19T13:52:27.331Z,78.73
2018-12-19T13:54:56.891Z,77.29
2018-12-19T13:57:26.199Z,77.37
2018-12-19T13:59:55.690Z,76.88
2018-12-19T14:02:25.410Z,75.93
2018-12-19T14:04:54.987Z,77.64
2018-12-19T14:07:24.506Z,79.42
2018-12-19T14:09:54.225Z,78.96
2018-12-19T14:12:23.830Z,76.15
2018-12-19T14:14:53.372Z,74.11
2018-12-19T14:17:22.888Z,74.03
2018-12-19T14:19:52.465Z,73.53
2018-12-19T14:22:22.196Z,71.47
2018-12-19T14:24:51.484Z,70.29
2018-12-19T14:27:21.014Z,70.38
2018-12-19T14:29:50.754Z,73.67
2018-12-19T14:32:20.375Z,76.79
2018-12-19T14:34:49.722Z,79.27
2018-12-19T14:37:19.208Z,83.12
2018-12-19T14:39:48.811Z,83.81
2018-12-19T14:42:19.197Z,82.75
2018-12-19T14:44:49.597Z,80.78
2018-12-19T14:47:19.728Z,79.10
2018-12-19T14:49:49.517Z,79.21
2018-12-19T14:52:19.075Z,77.75
2018-12-19T14:54:48.592Z,75.17
2018-12-19T14:57:18.148Z,75.67
2018-12-19T14:59:47.650Z,80.18
2018-12-19T15:02:16.926Z,80.51
2018-12-19T15:04:46.413Z,81.44
2018-12-19T15:07:16.028Z,80.38
2018-12-19T15:09:45.717Z,79.15
2018-12-19T15:12:15.047Z,77.49
2018-12-19T15:14:44.447Z,80.63
2018-12-19T15:17:14.059Z,80.37
2018-12-19T15:19:43.767Z,79.75
2018-12-19T15:22:13.396Z,80.53
2018-12-19T15:24:42.839Z,81.57
2018-12-19T15:27:12.477Z,83.73
2018-12-19T15:29:41.997Z,85.12
2018-12-19T15:32:11.596Z,86.02
2018-12-19T15:34:41.203Z,85.25
2018-12-19T15:37:10.678Z,86.31
2018-12-19T15:39:40.129Z,87.34
2018-12-19T15:42:09.652Z,87.58
2018-12-19T15:44:39.223Z,87.26
2018-12-19T15:47:08.738Z,86.39
2018-12-19T15:49:38.300Z,84.90
2018-12-19T15:52:07.989Z,82.36
2018-12-19T15:54:37.425Z,79.19
2018-12-19T15:57:07.284Z,77.71
2018-12-19T15:59:37.279Z,77.23
2018-12-19T16:02:06.968Z,80.23
2018-12-19T16:04:36.556Z,82.16
2018-12-19T16:07:06.004Z,84.30
2018-12-19T16:09:35.915Z,84.91
2018-12-19T16:12:05.404Z,83.38
2018-12-19T16:14:34.991Z,82.62
2018-12-19T16:17:04.526Z,80.48
2018-12-19T16:19:34.272Z,77.15
2018-12-19T16:22:04.086Z,74.94
2018-12-19T16:24:34.129Z,73.46
2018-12-19T16:27:04.228Z,72.11
2018-12-19T16:29:33.767Z,71.81
2018-12-19T16:32:03.614Z,71.20
2018-12-19T16:34:33.531Z,70.67
2018-12-19T16:37:03.052Z,69.72
2018-12-19T16:39:32.454Z,70.06
2018-12-19T16:42:02.043Z,69.62
2018-12-19T16:44:31.648Z,69.36
2018-12-19T16:47:01.294Z,69.81
2018-12-19T16:49:30.583Z,69.46
2018-12-19T16:51:59.876Z,69.29
2018-12-19T16:54:29.304Z,70.48
2018-12-19T16:56:58.557Z,70.10
2018-12-19T16:59:27.713Z,69.52
2018-12-19T17:01:57.086Z,69.59
2018-12-19T17:04:26.196Z,69.79
2018-12-19T17:06:55.375Z,69.84
2018-12-19T17:09:24.460Z,69.80
2018-12-19T17:11:53.615Z,70.62
2018-12-19T17:14:23.043Z,72.29
2018-12-19T17:16:52.355Z,72.17
2018-12-19T17:19:21.549Z,71.43
2018-12-19T17:21:50.827Z,70.60
2018-12-19T17:24:23.291Z,70.44
2018-12-19T17:26:52.563Z,70.13
2018-12-19T17:29:21.873Z,69.49
2018-12-19T17:31:51.135Z,68.80
2018-12-19T17:34:20.604Z,68.79
2018-12-19T17:36:49.848Z,68.90
2018-12-19T17:39:19.292Z,69.11
2018-12-19T17:41:48.712Z,68.63
2018-12-19T17:44:18.220Z,69.36
2018-12-19T17:46:47.671Z,69.13
2018-12-19T17:49:17.759Z,69.00
2018-12-19T17:51:47.093Z,69.23
2018-12-19T17:54:17.537Z,68.80
2018-12-19T17:56:47.025Z,68.81
2018-12-19T17:59:16.340Z,68.10
2018-12-19T18:01:46.019Z,68.35
2018-12-19T18:04:15.352Z,68.33
2018-12-19T18:06:44.616Z,67.77
2018-12-19T18:09:14.350Z,67.75
2018-12-19T18:11:43.665Z,70.23
2018-12-19T18:14:13.946Z,70.76
2018-12-19T18:16:43.387Z,71.22
2018-12-19T18:19:12.776Z,70.90
2018-12-19T18:21:42.104Z,70.62
2018-12-19T18:24:11.620Z,69.37
2018-12-19T18:26:41.004Z,69.80
2018-12-19T18:29:10.612Z,69.72
2018-12-19T18:31:39.758Z,70.59
2018-12-19T18:34:08.880Z,70.37
2018-12-19T18:36:38.163Z,70.02
2018-12-19T18:39:09.490Z,69.48
2018-12-19T18:41:38.931Z,69.04
2018-12-19T18:44:08.400Z,68.68
2018-12-19T18:46:37.765Z,68.39
2018-12-19T18:49:07.270Z,68.33
2018-12-19T18:51:36.779Z,68.98
2018-12-19T18:54:06.156Z,68.50
2018-12-19T18:56:35.557Z,68.11
2018-12-19T18:59:04.880Z,68.55
2018-12-19T19:01:34.157Z,67.51
2018-12-19T19:04:03.646Z,67.77
2018-12-19T19:06:32.755Z,67.90
2018-12-19T19:09:02.585Z,68.10
2018-12-19T19:11:31.947Z,68.21
2018-12-19T19:14:01.263Z,67.93
2018-12-19T19:16:30.613Z,67.70
2018-12-19T19:18:59.945Z,67.96
2018-12-19T19:21:29.456Z,67.59
2018-12-19T19:23:58.786Z,67.33
2018-12-19T19:26:27.983Z,67.12
2018-12-19T19:28:57.276Z,67.71
2018-12-19T19:31:26.728Z,67.45
2018-12-19T19:33:56.129Z,67.81
2018-12-19T19:36:25.480Z,68.00
2018-12-19T19:38:54.798Z,68.40
2018-12-19T19:41:24.223Z,68.21
2018-12-19T19:43:53.538Z,67.98
2018-12-19T19:46:22.908Z,67.64
2018-12-19T19:48:52.423Z,67.82
2018-12-19T19:51:21.868Z,68.11
2018-12-19T19:53:51.176Z,67.95
2018-12-19T19:56:20.616Z,68.35
2018-12-19T19:58:49.876Z,68.34
2018-12-19T20:01:19.455Z,67.82
2018-12-19T20:03:48.835Z,68.60
2018-12-19T20:06:18.410Z,67.90
2018-12-19T20:08:47.989Z,67.98
2018-12-19T20:11:17.659Z,68.06
2018-12-19T20:13:47.120Z,68.56
2018-12-19T20:16:16.307Z,68.43
2018-12-19T20:18:45.763Z,68.37
2018-12-19T20:21:15.203Z,68.68
2018-12-19T20:23:44.511Z,68.07
2018-12-19T20:26:13.927Z,67.52
2018-12-19T20:28:43.482Z,67.53
2018-12-19T20:31:12.772Z,66.91
2018-12-19T20:33:42.360Z,66.73
2018-12-19T20:36:11.512Z,66.55
2018-12-19T20:38:40.845Z,66.20
2018-12-19T20:41:10.229Z,66.02
2018-12-19T20:43:40.132Z,66.57
2018-12-19T20:46:09.623Z,66.55
2018-12-19T20:48:38.937Z,66.76
2018-12-19T20:51:08.348Z,66.57
2018-12-19T20:53:37.939Z,66.62
2018-12-19T20:56:07.375Z,67.04
2018-12-19T20:58:36.838Z,66.48
2018-12-19T21:01:05.960Z,66.59
2018-12-19T21:03:35.296Z,66.61
2018-12-19T21:06:04.579Z,66.64
2018-12-19T21:08:33.993Z,66.74
2018-12-19T21:11:03.315Z,66.59
2018-12-19T21:13:32.574Z,66.75
2018-12-19T21:16:01.892Z,66.50
2018-12-19T21:18:36.278Z,66.67
2018-12-19T21:21:05.613Z,66.63
2018-12-19T21:23:34.985Z,67.09
2018-12-19T21:26:04.417Z,66.83
2018-12-19T21:28:33.667Z,68.02
2018-12-19T21:31:03.147Z,68.49
2018-12-19T21:33:32.517Z,68.63
2018-12-19T21:36:01.754Z,68.84
2018-12-19T21:38:30.940Z,69.91
2018-12-19T21:41:00.205Z,70.26
2018-12-19T21:43:29.878Z,70.12
2018-12-19T21:45:59.061Z,69.73
2018-12-19T21:48:28.698Z,69.16
2018-12-19T21:50:57.928Z,69.54
2018-12-19T21:53:27.166Z,68.55
2018-12-19T21:55:56.550Z,69.64
2018-12-19T21:58:26.164Z,71.01
2018-12-19T22:00:55.541Z,73.99
2018-12-19T22:03:25.002Z,80.14
2018-12-19T22:05:54.278Z,79.14
2018-12-19T22:08:23.499Z,75.89
2018-12-19T22:10:53.086Z,73.72
2018-12-19T22:13:22.510Z,72.44
2018-12-19T22:15:51.767Z,71.15
2018-12-19T22:18:26.532Z,69.92
2018-12-19T22:20:55.915Z,69.79
2018-12-19T22:23:25.553Z,74.64
2018-12-19T22:25:54.820Z,82.69
2018-12-19T22:28:24.027Z,83.39
2018-12-19T22:30:53.304Z,81.38
2018-12-19T22:33:22.975Z,77.99
2018-12-19T22:35:52.659Z,76.48
2018-12-19T22:38:22.268Z,76.47
2018-12-19T22:40:52.079Z,75.26
2018-12-19T22:43:21.920Z,77.37
2018-12-19T22:45:51.325Z,81.62
2018-12-19T22:48:20.963Z,81.55
2018-12-19T22:50:50.629Z,79.85
2018-12-19T22:53:20.102Z,78.57
2018-12-19T22:55:50.709Z,76.61
2018-12-19T22:58:20.289Z,75.42
2018-12-19T23:00:56.097Z,78.12
2018-12-19T23:03:30.659Z,82.45
2018-12-19T23:06:00.474Z,84.98
2018-12-19T23:08:30.049Z,85.65
2018-12-19T23:10:59.974Z,83.25
2018-12-19T23:13:29.420Z,82.94
2018-12-19T23:15:58.963Z,79.72
2018-12-19T23:18:28.654Z,78.54
2018-12-19T23:20:58.364Z,77.60
2018-12-19T23:23:27.791Z,75.62
2018-12-19T23:25:56.988Z,75.30
2018-12-19T23:28:26.180Z,76.68
2018-12-19T23:30:55.664Z,78.03
2018-12-19T23:33:25.207Z,77.43
2018-12-19T23:35:54.443Z,76.50
2018-12-19T23:38:23.663Z,75.47
2018-12-19T23:40:52.915Z,76.13
2018-12-19T23:43:22.349Z,76.68
2018-12-19T23:45:51.646Z,76.92
2018-12-19T23:48:21.028Z,80.44
2018-12-19T23:50:50.295Z,82.04
2018-12-19T23:53:19.544Z,84.49
2018-12-19T23:55:48.789Z,86.59
2018-12-19T23:58:18.017Z,89.10
